Enter the Airport ICAO Code

Search by Airport or City

Current Weather

SKBQ | Ernesto Cortissoz International Airport

Barranquilla, Colombia

Last Update 44 Minutes Ago

Rain Shower

Temperature of 29 ºC

Light to Moderate Winds from North

Temperature

29 ºC

Dew Point Temperature

25 ºC

Relative Humidity

79.17 %

Wind Direction

North (350º, Without Significant Variations)

Wind Velocity

13 km/h (07 kt)

Gusts

None

Visibility

Greater than 10 Kilometers

Sea Level Pressure

29.77 inHg (Inches of Mercury)

Layers of Clouds

5% to 30% of Sky Covered with Cumulonimbus from 366 mts (1200 ft) Above Ground Level.

30% to 60% of Sky Covered from 457 mts (1500 ft) Above Ground Level.

METAR SKBQ 022100Z 35007KT 9999 VCSH FEW012CB SCT015 29/25 A2977 NOSIG RMK CB/VCSH/SW

Weather Forecast

SKBQ | Ernesto Cortissoz International Airport

Barranquilla, Colombia

Forecast valid for the next 20 Hours

From now on it is expected:

Partly Cloudy Sky

Light Winds from North

In 12 hours it is expected the begining of 2 hours with intermittent periods of:

Mist

Maximum Temperature

No Data

Minimum Temperature

No Data

TAF SKBQ 021630Z 0218/0318 02004KT 9999 SCT015 TEMPO 0219/0221 5000 TSRA FEW008CB SCT015 BKN070 TEMPO 0310/0312 3000 BR SCT010 TX31/0316Z TN25/0309Z